Weather at Assiniboia Airport

Public forecast

Using degrees Celsius for public forecast. Weather courtesy of forecast.io.

Closest aviation weather report (METAR) to Assiniboia Airport

Closest report is Moose Jaw Air Vice Marshal C. M. McEwen Airport, 38.8 nm (71.8 km) NNE. Retrieved 2021/06/16 23:32 UTC (0 seconds ago):

CYMJ 162332Z 27011G24KT 15SM SCT080 23/06 A2995 RMK CU3 LAST OBS/NEXT 141000 UTC SLP138

Closest aviation forecast (TAF) to Assiniboia Airport

Closest forecast is Moose Jaw Air Vice Marshal C. M. McEwen Airport, 38.8 nm (71.8 km) NNE. Retrieved 2021/06/16 18:33 UTC (5 hours ago):

TAF CYMJ 161730Z 1618/1706 27025G35KT P6SM BKN040 FM162300 28020KT P6SM FEW080 BECMG 1703/1705 27012KT RMK NXT FCST BY 170000Z